Arnold Palmer Regional Airport
KLBE : rendu visible

Aérodrome :











RETROUVEZ-NOUS SUR...

 
LOGIN :

S'inscrire | Disclaimer

   EN    FR    IT 

 









Légende :    VFR   VFR Marginal   IFR   IFR Intensif   IFR Très Intensif
Visi : 
Plafond : 
>= 8 km
>= 3000ft
5 à 8 km
1000 à 3000 ft
1500m à 5 km
500 à 1000 ft
800 à 1500m
200 à 500 ft
< 800m
< 200 ft
Symboles :   Orages  Brouillard  Fortes neiges  Fortes précipitations  Vent > 20 kt






- Altitude de l'aérodrome : 1199 ft
- Code IATA : LBE


KLBE - Arnold Palmer Regional

DERNIER METAR :
  • 211550Z 00000KT 6SM HZ OVC150 06/02 A3017

METARs EXPIRÉS :
  • 211453Z 00000KT 4SM BR SKC 02/01 A3019
  • 211353Z 00000KT 3SM BR SKC 00/00 A3022

TAF KLBE
Valide du 21 à 12h jusqu'au 22 à 12h UTC


211132Z 2112/2212 00000KT 4SM BR FEW025 BKN250
FM211400 18006KT P6SM BKN250
FM220000 21012KT P6SM OVC080 WS020/23040KT
FM220400 23013KT P6SM VCSH OVC050 WS020/24040KT
FM220900 27012G18KT P6SM -SHRA OVC015



MET'MAP, la Météo Aéronautique d'un coup d'oeil ! - Copyright ORBIFLY Décembre 2007 - Disclaimer

ORBIFLY MET'MAP TEAM :

Programmation & Développement : Alexandra Zaïnal
Conception & Développement : Baudouin d'Aumeries
Co-Programmation & Développement : Marc-Olivier Méhu
Soutien technique & logistique : Manuel Goepfert

Contact : metmap@orbifly.com




SOURCES & CREDITS :

   NOAA       Earth
Advisory